Time;durP1;ratioP1;P1;durP2;ratioP2;P2;SDS_P1;SDS_P2;PMS_P1;PMS_P2;Temp;Humidity;BMP_temperature;BMP_pressure;BME280_temperature;BME280_humidity;BME280_pressure;Samples;Min_cycle;Max_cycle;Signal;HPM_P1;HPM_P2
2021/07/12 00:00:38;;;;;;;2.80;2.50;;;22.70;99.90;;;22.20;68.87;100306.34;5029130;28;20052;-53
2021/07/12 00:03:06;;;;;;;5.25;3.20;;;22.70;99.90;;;22.17;68.84;100297.00;5011256;28;20088;-54
2021/07/12 00:05:34;;;;;;;3.25;2.88;;;22.70;99.90;;;22.18;68.60;100295.97;5010751;28;20509;-51
2021/07/12 00:08:00;;;;;;;3.53;3.00;;;22.70;99.90;;;22.17;68.81;100302.28;5028636;28;20169;-53
2021/07/12 00:10:29;;;;;;;3.60;2.83;;;22.70;99.90;;;22.13;68.98;100296.63;5010703;28;20113;-53
2021/07/12 00:12:56;;;;;;;6.57;3.38;;;22.60;99.90;;;22.12;69.32;100300.31;5028595;28;20492;-54
2021/07/12 00:15:25;;;;;;;5.30;3.15;;;22.70;99.90;;;22.05;69.79;100304.88;5028596;28;20037;-51
2021/07/12 00:17:51;;;;;;;4.18;3.42;;;22.60;99.90;;;22.08;69.18;100304.44;5027499;28;20037;-52
2021/07/12 00:20:18;;;;;;;3.55;3.08;;;22.60;99.90;;;22.09;69.46;100302.59;5028700;28;20128;-50
2021/07/12 00:22:46;;;;;;;4.03;2.90;;;22.60;99.90;;;22.05;69.86;100298.78;5028722;28;20029;-54
2021/07/12 00:25:14;;;;;;;2.97;2.70;;;22.60;99.90;;;22.14;69.17;100292.94;5028500;28;20624;-53
2021/07/12 00:27:43;;;;;;;5.72;4.13;;;22.60;99.90;;;22.31;68.60;100294.94;5028461;28;20390;-55
2021/07/12 00:30:13;;;;;;;5.57;3.65;;;22.70;99.90;;;22.54;67.66;100297.69;5028232;28;20037;-51
2021/07/12 00:32:42;;;;;;;4.07;3.65;;;22.90;99.90;;;22.47;68.23;100291.66;5028500;28;20503;-53
2021/07/12 00:35:11;;;;;;;4.50;4.03;;;23.00;99.90;;;22.57;67.38;100299.88;5028345;28;20033;-54
2021/07/12 00:37:37;;;;;;;4.57;3.75;;;23.00;99.90;;;22.68;66.38;100293.00;5028460;28;20057;-54
2021/07/12 00:40:10;;;;;;;4.28;3.90;;;23.10;99.90;;;22.71;66.24;100297.81;5027908;28;20035;-56
2021/07/12 00:42:36;;;;;;;6.85;4.13;;;23.20;99.90;;;22.78;66.10;100291.41;5027885;28;20117;-55
2021/07/12 00:45:12;;;;;;;9.00;4.82;;;23.20;99.90;;;22.74;66.22;100292.88;5027162;28;20497;-54
2021/07/12 00:47:38;;;;;;;4.47;3.90;;;23.20;99.90;;;22.78;66.24;100298.53;5010918;28;20037;-56
2021/07/12 00:50:08;;;;;;;5.15;3.90;;;23.20;99.90;;;22.82;66.21;100295.22;5010051;28;20254;-53
2021/07/12 00:52:35;;;;;;;4.22;3.83;;;23.30;99.90;;;22.88;65.97;100284.72;5027952;28;20034;-53
2021/07/12 00:55:13;;;;;;;4.10;3.60;;;23.30;99.90;;;22.88;66.20;100295.34;5027626;28;20176;-54
2021/07/12 00:57:41;;;;;;;6.32;4.55;;;23.30;99.90;;;22.91;65.67;100289.59;5028011;28;20099;-54
2021/07/12 01:00:10;;;;;;;4.50;4.10;;;23.40;99.90;;;22.90;66.10;100294.09;5027940;28;20079;-47
2021/07/12 01:02:36;;;;;;;4.57;4.05;;;23.40;99.90;;;22.92;66.00;100299.97;5027668;28;20037;-52
2021/07/12 01:05:07;;;;;;;5.78;4.50;;;23.40;99.90;;;22.92;65.96;100296.50;5027779;28;20037;-57
2021/07/12 01:07:33;;;;;;;5.20;4.60;;;23.40;99.90;;;22.89;65.55;100292.47;5009718;28;20486;-50
2021/07/12 01:10:00;;;;;;;5.60;4.13;;;23.40;99.90;;;22.95;65.26;100302.19;5027654;28;20470;-51
2021/07/12 01:12:59;;;;;;;7.78;4.50;;;23.40;99.90;;;23.11;65.10;100296.19;5009867;28;20090;-50
2021/07/12 01:15:34;;;;;;;5.32;4.32;;;23.50;99.90;;;23.03;65.10;100298.38;5013136;28;20462;-52
2021/07/12 01:18:41;;;;;;;8.10;4.68;;;23.50;99.90;;;22.87;66.06;100302.50;5027392;28;20034;-53
2021/07/12 01:22:07;;;;;;;6.28;4.15;;;23.40;99.90;;;22.89;65.91;100299.63;5027459;28;20055;-54
2021/07/12 01:25:25;;;;;;;3.88;3.53;;;23.40;99.90;;;22.89;66.20;100310.25;5014471;28;20129;-55
2021/07/12 01:29:01;;;;;;;6.93;4.43;;;23.40;99.90;;;22.88;65.93;100303.31;5027658;28;20350;-51
2021/07/12 01:32:15;;;;;;;5.88;4.03;;;23.30;99.90;;;22.86;66.35;100305.41;4985316;28;20069;-51
2021/07/12 01:35:22;;;;;;;4.65;3.60;;;23.30;99.90;;;22.73;66.57;100306.38;4985228;28;20081;-52
2021/07/12 01:38:16;;;;;;;4.18;3.83;;;23.30;99.90;;;22.71;66.27;100308.44;4985095;28;20223;-55
2021/07/12 01:41:23;;;;;;;9.40;4.28;;;23.20;99.90;;;22.56;67.79;100308.91;4985256;28;20061;-55
2021/07/12 01:44:07;;;;;;;6.07;4.55;;;23.10;99.90;;;22.49;67.79;100313.47;4965301;28;20053;-55
2021/07/12 01:46:44;;;;;;;5.97;4.28;;;23.00;99.90;;;22.45;67.97;100315.78;4965614;28;20042;-54
2021/07/12 01:49:32;;;;;;;4.40;4.00;;;23.00;99.90;;;22.34;68.46;100323.69;4965677;28;20471;-51
2021/07/12 01:52:09;;;;;;;6.40;4.55;;;22.90;99.90;;;22.15;68.69;100321.09;4965669;28;20536;-54
2021/07/12 01:55:12;;;;;;;6.65;4.43;;;22.70;99.90;;;22.07;69.32;100313.44;4965501;28;20438;-53
2021/07/12 01:57:57;;;;;;;6.47;4.57;;;22.60;99.90;;;21.97;69.88;100323.72;4965423;28;20089;-56
2021/07/12 02:00:24;;;;;;;4.93;4.43;;;22.50;99.90;;;21.93;69.38;100317.25;4965382;28;20550;-53
2021/07/12 02:02:55;;;;;;;6.32;3.90;;;22.50;99.90;;;21.95;69.37;100315.19;4965417;28;20041;-54
2021/07/12 02:05:26;;;;;;;7.57;4.30;;;22.40;99.90;;;21.99;69.18;100310.25;4976830;28;20053;-56
2021/07/12 02:07:55;;;;;;;6.05;3.83;;;22.50;99.90;;;21.94;69.48;100308.25;4984933;28;20073;-48
2021/07/12 02:10:26;;;;;;;5.25;4.40;;;22.40;99.90;;;21.95;69.30;100307.22;4984595;28;20034;-52
2021/07/12 02:12:54;;;;;;;6.85;4.13;;;22.50;99.90;;;22.03;69.49;100306.94;4984800;28;20410;-54
2021/07/12 02:15:21;;;;;;;6.05;3.85;;;22.50;99.90;;;21.96;69.60;100302.72;4984804;28;20153;-54
2021/07/12 02:17:51;;;;;;;6.43;4.43;;;22.50;99.90;;;21.92;69.80;100299.72;4984771;28;20038;-54
2021/07/12 02:20:19;;;;;;;7.25;4.38;;;22.40;99.90;;;21.91;70.45;100303.41;5020958;28;20436;-47
2021/07/12 02:22:51;;;;;;;7.03;4.85;;;22.40;99.90;;;21.91;70.25;100292.78;5026957;28;20096;-51
2021/07/12 02:25:20;;;;;;;4.70;3.80;;;22.40;99.90;;;22.06;69.43;100290.59;5026959;28;20045;-48
2021/07/12 02:27:48;;;;;;;7.72;4.82;;;22.50;99.90;;;21.98;70.03;100290.88;5009253;28;20408;-54
2021/07/12 02:30:15;;;;;;;5.90;4.32;;;22.50;99.90;;;22.01;70.12;100279.00;5009173;28;20034;-57
2021/07/12 02:32:43;;;;;;;6.25;4.95;;;22.50;99.90;;;22.12;69.07;100279.09;5008716;28;20390;-52
2021/07/12 02:35:13;;;;;;;5.05;4.53;;;22.50;99.90;;;22.15;68.92;100278.63;5026603;28;20121;-49
2021/07/12 02:37:43;;;;;;;7.40;4.88;;;22.60;99.90;;;22.12;68.88;100278.28;5008906;28;20033;-50
2021/07/12 02:42:40;;;;;;;6.72;4.90;;;22.60;99.90;;;22.05;69.26;100288.16;5169674;22;20054;-52
2021/07/12 02:45:08;;;;;;;5.28;4.65;;;22.50;99.90;;;22.02;69.54;100283.31;5009073;28;20042;-55
2021/07/12 02:47:36;;;;;;;6.07;4.72;;;22.50;99.90;;;22.02;69.42;100278.81;4992953;28;20026;-52
2021/07/12 02:50:05;;;;;;;5.35;4.38;;;22.50;99.90;;;21.94;69.70;100279.06;5010967;28;20038;-53
2021/07/12 02:53:19;;;;;;;7.75;5.13;;;22.40;99.90;;;21.86;70.38;100279.38;5010406;28;20065;-53
2021/07/12 02:55:46;;;;;;;5.47;4.97;;;22.40;99.90;;;21.79;70.01;100279.44;5010336;28;20053;-53
2021/07/12 02:58:12;;;;;;;5.28;4.38;;;22.30;99.90;;;21.75;70.31;100290.72;5010553;28;20048;-50
2021/07/12 03:00:38;;;;;;;5.90;4.88;;;22.30;99.90;;;21.67;70.74;100270.66;5010313;28;20454;-50
2021/07/12 03:03:04;;;;;;;6.28;5.30;;;22.20;99.90;;;21.60;71.05;100274.41;5010215;28;20038;-53
2021/07/12 03:05:30;;;;;;;6.22;4.75;;;22.10;99.90;;;21.57;71.34;100277.50;4992498;28;20071;-52
2021/07/12 03:08:08;;;;;;;5.35;4.85;;;22.10;99.90;;;21.57;72.05;100275.66;5010237;28;20030;-54
2021/07/12 03:10:51;;;;;;;8.55;4.70;;;22.10;99.90;;;21.53;72.20;100280.56;5010004;28;20504;-51
2021/07/12 03:13:53;;;;;;;8.10;5.40;;;22.10;99.90;;;21.50;72.53;100272.25;4992761;28;20069;-51
2021/07/12 03:16:19;;;;;;;5.90;5.30;;;22.00;99.90;;;21.55;71.68;100276.91;4992820;28;20099;-53
2021/07/12 03:18:54;;;;;;;4.80;4.32;;;22.00;99.90;;;21.59;71.85;100280.72;5009905;28;20052;-54
2021/07/12 03:21:24;;;;;;;6.20;4.82;;;22.00;99.90;;;21.66;71.59;100278.81;4992826;28;20046;-56
2021/07/12 03:23:53;;;;;;;5.63;5.13;;;22.10;99.90;;;21.58;71.64;100289.72;4992342;28;20038;-53
2021/07/12 03:26:21;;;;;;;5.93;5.32;;;22.10;99.90;;;21.56;71.98;100286.47;4992609;28;20045;-54
2021/07/12 03:28:52;;;;;;;6.15;5.13;;;22.10;99.90;;;21.62;71.50;100288.25;4992312;28;20065;-56
2021/07/12 03:31:26;;;;;;;6.70;5.43;;;22.10;99.90;;;21.68;71.07;100288.19;5010006;28;20034;-53
2021/07/12 03:33:56;;;;;;;8.65;5.50;;;22.10;99.90;;;21.72;70.85;100291.19;5009735;28;20119;-50
2021/07/12 03:36:24;;;;;;;7.25;5.68;;;22.20;99.90;;;21.81;70.22;100298.59;4992173;28;20130;-54
2021/07/12 03:38:52;;;;;;;5.60;5.00;;;22.30;99.90;;;22.11;68.85;100293.38;4976015;28;20780;-51
2021/07/12 03:41:18;;;;;;;6.43;5.68;;;22.40;99.90;;;22.21;68.72;100300.00;5009615;28;20402;-54
2021/07/12 03:43:44;;;;;;;9.07;6.32;;;22.70;99.90;;;22.26;68.57;100306.22;5009337;28;20148;-52
2021/07/12 03:46:12;;;;;;;8.25;5.28;;;22.70;99.90;;;22.18;69.08;100310.03;5009658;28;20042;-53
2021/07/12 03:48:41;;;;;;;5.90;5.13;;;22.70;99.90;;;22.10;69.63;100313.00;5009403;28;20473;-52
2021/07/12 03:51:12;;;;;;;5.95;4.07;;;22.60;99.90;;;22.02;70.03;100315.13;5009166;28;20420;-53
2021/07/12 03:53:38;;;;;;;7.43;5.05;;;22.60;99.90;;;21.88;70.72;100311.78;5009051;28;20389;-53
2021/07/12 03:56:05;;;;;;;10.68;5.35;;;22.50;99.90;;;21.81;70.94;100319.81;4991552;28;20037;-54
2021/07/12 03:58:31;;;;;;;8.52;5.22;;;22.40;99.90;;;21.80;70.87;100323.50;5009449;28;20560;-53
2021/07/12 04:01:00;;;;;;;7.60;5.25;;;22.40;99.90;;;21.79;71.16;100319.22;5009231;28;20353;-52
2021/07/12 04:03:31;;;;;;;5.20;4.53;;;22.30;99.90;;;21.80;71.32;100322.69;5009084;28;20392;-54
2021/07/12 04:05:59;;;;;;;5.65;4.20;;;22.30;99.90;;;21.78;71.25;100327.41;5009044;28;20040;-53
2021/07/12 04:08:25;;;;;;;5.00;4.53;;;22.30;99.90;;;21.79;71.23;100329.84;5008941;28;20141;-50
2021/07/12 04:10:51;;;;;;;7.25;4.45;;;22.30;99.90;;;21.77;71.43;100315.19;5009044;28;20243;-51
2021/07/12 04:13:17;;;;;;;4.90;3.72;;;22.30;99.90;;;22.33;69.51;100322.06;5008959;28;20057;-54
2021/07/12 04:15:44;;;;;;;7.10;4.50;;;22.80;99.90;;;23.28;66.14;100324.72;5008778;28;20049;-52
2021/07/12 04:18:10;;;;;;;6.95;4.50;;;23.90;99.90;;;24.08;63.51;100317.69;5008905;28;20030;-56
2021/07/12 04:20:38;;;;;;;6.53;4.30;;;24.90;99.90;;;24.53;62.26;100321.47;5008748;28;20033;-50
2021/07/12 04:23:05;;;;;;;5.15;4.65;;;25.30;99.90;;;25.29;59.82;100315.53;5008976;28;20165;-54
2021/07/12 04:25:31;;;;;;;5.53;4.53;;;26.00;98.60;;;25.67;58.32;100311.25;5008763;28;20045;-52
2021/07/12 04:27:57;;;;;;;6.53;4.78;;;26.70;96.60;;;25.98;57.70;100307.91;5008561;28;20133;-48
2021/07/12 04:30:25;;;;;;;5.38;4.38;;;27.10;95.40;;;26.70;55.67;100315.59;4990713;28;20455;-54
2021/07/12 04:32:51;;;;;;;6.07;4.32;;;27.80;94.10;;;26.81;55.41;100315.69;5008291;28;20388;-52
2021/07/12 04:35:17;;;;;;;9.70;4.45;;;28.30;92.50;;;26.74;55.91;100322.03;5008765;28;20056;-50
2021/07/12 04:37:43;;;;;;;10.65;4.82;;;28.50;91.60;;;26.98;55.17;100321.72;5008860;28;20025;-55
2021/07/12 04:40:10;;;;;;;8.48;3.88;;;28.90;90.30;;;27.62;53.20;100321.59;5008455;28;20044;-54
2021/07/12 04:42:37;;;;;;;6.80;4.60;;;29.40;88.10;;;27.70;52.95;100324.59;5007851;28;20058;-55
2021/07/12 04:45:04;;;;;;;7.85;3.95;;;29.80;84.70;;;27.88;52.89;100326.03;5008414;28;20069;-49
2021/07/12 04:47:31;;;;;;;7.20;3.75;;;30.20;82.40;;;27.71;53.11;100323.53;5008345;28;20442;-57
2021/07/12 04:49:57;;;;;;;7.15;3.83;;;30.40;80.00;;;28.14;51.69;100326.09;4990383;28;20342;-52
2021/07/12 04:52:23;;;;;;;4.78;3.65;;;30.50;78.70;;;28.34;51.29;100318.94;5008344;28;20038;-55
2021/07/12 04:54:50;;;;;;;5.82;3.42;;;30.80;76.90;;;28.88;49.91;100329.19;5008093;28;20092;-58
2021/07/12 04:57:16;;;;;;;11.25;4.63;;;31.40;74.60;;;29.19;48.38;100332.66;5008417;28;20034;-54
2021/07/12 04:59:47;;;;;;;7.95;3.70;;;31.40;72.80;;;28.50;49.11;100327.78;5007917;28;20044;-48
2021/07/12 05:02:13;;;;;;;12.40;3.95;;;31.00;71.90;;;28.49;50.46;100333.41;4990406;28;20159;-45
2021/07/12 05:04:42;;;;;;;8.55;4.75;;;30.80;73.30;;;29.71;47.69;100326.09;5007582;28;20075;-54
2021/07/12 05:07:10;;;;;;;5.85;3.75;;;31.90;70.70;;;29.48;47.75;100337.44;4989955;28;20119;-54
2021/07/12 05:09:36;;;;;;;5.30;3.58;;;32.10;68.60;;;29.88;46.88;100334.59;4989901;28;20652;-53
2021/07/12 05:12:02;;;;;;;10.50;3.25;;;32.40;67.70;;;29.69;47.21;100339.00;5008141;28;20072;-51
2021/07/12 05:14:29;;;;;;;7.30;3.90;;;32.50;67.00;;;29.79;46.84;100338.94;4990146;28;20050;-50
2021/07/12 05:16:55;;;;;;;4.50;3.65;;;32.70;65.60;;;30.15;45.89;100346.88;4990159;28;20289;-54
2021/07/12 05:19:21;;;;;;;6.32;3.67;;;33.00;64.70;;;29.79;46.40;100347.00;4989886;28;20034;-54
2021/07/12 05:21:47;;;;;;;5.57;3.70;;;32.50;64.90;;;30.17;45.46;100352.78;5007540;28;20083;-57
2021/07/12 05:24:14;;;;;;;7.32;3.08;;;32.70;64.70;;;30.71;44.59;100344.66;5007841;28;20056;-49
2021/07/12 05:26:43;;;;;;;9.90;3.75;;;33.30;63.50;;;31.30;43.06;100352.47;4989684;28;20045;-52
2021/07/12 05:29:11;;;;;;;7.10;2.90;;;34.40;59.90;;;31.62;42.63;100354.56;5007258;28;20083;-48
2021/07/12 05:31:37;;;;;;;6.57;3.17;;;34.80;58.80;;;31.87;42.25;100356.19;5007619;28;20191;-48
2021/07/12 05:34:03;;;;;;;4.88;3.38;;;35.40;57.50;;;31.99;41.65;100345.78;5007500;28;20208;-47
2021/07/12 05:36:34;;;;;;;4.88;3.35;;;35.60;56.80;;;31.88;41.81;100357.78;5007353;28;20057;-52
2021/07/12 05:39:00;;;;;;;4.68;3.70;;;36.00;55.50;;;32.31;41.29;100357.78;5007325;28;20091;-47
2021/07/12 05:41:26;;;;;;;3.88;3.33;;;35.90;55.00;;;32.91;40.10;100357.97;5006819;28;20076;-55
2021/07/12 05:43:52;;;;;;;3.50;3.20;;;36.40;54.00;;;33.38;39.26;100361.47;5007177;28;20046;-57
2021/07/12 05:46:18;;;;;;;8.32;3.50;;;36.70;53.40;;;33.49;39.09;100357.47;5007386;28;20061;-50
2021/07/12 05:48:44;;;;;;;9.95;3.45;;;36.70;53.30;;;33.98;37.99;100359.47;5007258;28;20042;-57
2021/07/12 05:51:13;;;;;;;5.93;3.38;;;37.40;52.00;;;34.20;37.76;100361.44;4989402;28;20038;-55
2021/07/12 05:53:41;;;;;;;4.82;3.17;;;37.70;51.50;;;34.36;36.75;100357.31;5007234;28;20047;-54
2021/07/12 05:56:10;;;;;;;6.13;3.10;;;38.00;50.10;;;34.42;36.35;100360.69;5007457;28;20034;-50
2021/07/12 05:58:38;;;;;;;5.72;3.17;;;38.20;49.70;;;34.14;37.40;100365.34;5007436;28;20034;-51
2021/07/12 06:01:04;;;;;;;8.05;3.58;;;38.10;49.10;;;34.41;36.74;100362.59;5007673;28;20112;-50
2021/07/12 06:03:30;;;;;;;5.82;3.67;;;38.40;48.80;;;34.64;36.38;100355.28;5007586;28;20489;-55
2021/07/12 06:05:56;;;;;;;3.97;3.05;;;38.90;48.20;;;34.85;35.94;100363.75;5007216;28;20030;-50
2021/07/12 06:08:22;;;;;;;3.25;2.85;;;38.90;47.90;;;35.05;35.60;100357.81;5007179;28;20042;-53
2021/07/12 06:10:48;;;;;;;4.90;3.33;;;39.00;47.60;;;35.00;35.17;100366.03;4989208;28;20037;-55
2021/07/12 06:13:14;;;;;;;5.97;2.97;;;39.00;47.40;;;34.83;35.53;100355.13;5007326;28;20085;-57
2021/07/12 06:15:40;;;;;;;7.85;3.45;;;38.80;47.30;;;34.42;36.28;100349.88;5007707;28;20046;-57
2021/07/12 06:18:15;;;;;;;3.00;2.78;;;38.50;47.50;;;34.26;35.07;100344.78;5011063;28;20070;-54
2021/07/12 06:20:43;;;;;;;4.13;2.83;;;38.20;47.80;;;34.61;35.84;100340.47;5011170;28;20093;-55
2021/07/12 06:23:10;;;;;;;2.70;2.50;;;37.90;48.60;;;33.34;36.82;100345.06;5011215;28;20085;-51
2021/07/12 06:25:37;;;;;;;3.92;3.13;;;37.20;48.60;;;32.78;37.59;100348.72;5011109;28;20030;-52
2021/07/12 06:28:04;;;;;;;3.92;3.60;;;36.20;50.20;;;32.96;38.15;100341.69;4993187;28;20037;-57
2021/07/12 06:30:31;;;;;;;4.60;3.85;;;36.20;50.50;;;33.90;36.64;100349.38;5010838;28;20207;-54
2021/07/12 06:32:57;;;;;;;5.43;3.92;;;37.10;49.40;;;34.76;35.14;100350.13;5010690;28;20034;-54
2021/07/12 06:35:23;;;;;;;5.07;3.22;;;38.40;47.40;;;35.15;34.59;100354.03;5010647;28;20390;-49
2021/07/12 06:37:49;;;;;;;4.15;3.47;;;39.20;46.20;;;35.71;33.86;100347.91;5010480;28;20038;-52
2021/07/12 06:40:15;;;;;;;4.05;3.67;;;40.00;45.50;;;36.03;33.43;100349.41;5010789;28;20049;-49
2021/07/12 06:42:41;;;;;;;5.03;3.05;;;40.40;44.90;;;36.03;33.23;100346.69;5010347;28;20050;-50
2021/07/12 06:45:15;;;;;;;6.93;3.65;;;40.50;44.50;;;35.97;33.68;100347.97;5010703;28;20052;-52
2021/07/12 06:47:43;;;;;;;4.00;3.22;;;40.40;45.00;;;36.66;32.04;100347.22;5010458;28;20048;-55
2021/07/12 06:50:10;;;;;;;4.80;3.05;;;40.90;43.80;;;36.67;32.47;100335.22;5010138;28;20034;-51
2021/07/12 06:52:36;;;;;;;4.72;3.60;;;41.20;43.40;;;36.70;32.15;100337.31;5010382;28;20030;-50
2021/07/12 06:55:02;;;;;;;4.15;3.20;;;41.30;43.40;;;36.47;32.26;100334.78;5010102;28;20556;-53
2021/07/12 06:57:28;;;;;;;3.25;2.95;;;41.20;43.30;;;36.45;32.54;100337.00;5010612;28;20041;-55
2021/07/12 06:59:56;;;;;;;3.60;3.30;;;41.10;43.10;;;36.41;32.94;100327.09;5010271;28;20473;-54
2021/07/12 07:02:25;;;;;;;3.20;2.90;;;41.00;43.40;;;36.32;32.34;100329.84;5010061;28;20030;-55
2021/07/12 07:04:51;;;;;;;2.92;2.72;;;41.00;43.00;;;36.26;32.58;100333.00;5009890;28;20118;-54
2021/07/12 07:07:17;;;;;;;5.82;3.00;;;40.80;43.00;;;36.18;32.35;100326.47;5010249;28;20060;-55
2021/07/12 07:09:43;;;;;;;4.43;3.00;;;40.80;42.70;;;36.44;31.61;100319.13;5010285;28;20044;-55
2021/07/12 07:12:09;;;;;;;3.47;3.08;;;41.00;42.60;;;36.60;31.39;100327.56;5010482;28;20041;-55
2021/07/12 07:14:38;;;;;;;6.88;2.92;;;41.20;42.00;;;35.87;32.24;100321.19;5009675;28;20034;-56
2021/07/12 07:17:04;;;;;;;3.55;3.03;;;40.70;42.00;;;35.74;31.80;100322.88;5009433;28;20042;-52
2021/07/12 07:19:30;;;;;;;4.90;3.35;;;40.30;43.20;;;35.14;32.45;100320.75;5009633;28;20042;-53
2021/07/12 07:21:56;;;;;;;4.13;3.47;;;39.10;44.00;;;33.77;34.84;100315.84;5009716;28;20104;-54
2021/07/12 07:24:22;;;;;;;3.28;2.97;;;36.70;47.50;;;31.89;38.44;100324.38;5010011;28;20131;-52
2021/07/12 07:26:48;;;;;;;3.78;3.25;;;34.10;51.70;;;31.97;38.77;100312.94;5008951;28;20057;-53
2021/07/12 07:29:15;;;;;;;3.70;3.40;;;33.20;53.40;;;31.75;39.37;100328.84;5009730;28;20057;-54
2021/07/12 07:31:45;;;;;;;4.40;3.42;;;32.80;54.30;;;31.43;40.13;100317.91;5009490;28;20038;-57
2021/07/12 07:34:10;;;;;;;4.00;3.70;;;32.40;55.20;;;30.95;41.21;100309.75;5009368;28;20141;-53
2021/07/12 07:36:39;;;;;;;3.78;3.50;;;32.00;56.30;;;30.41;42.58;100302.63;5009561;28;20447;-50
2021/07/12 07:39:06;;;;;;;7.55;4.00;;;31.20;58.30;;;30.53;42.21;100311.16;5009487;28;20042;-52
2021/07/12 07:41:33;;;;;;;5.70;4.13;;;31.10;58.80;;;30.31;43.43;100305.38;5009510;28;20100;-52
2021/07/12 07:44:00;;;;;;;4.75;4.25;;;30.90;59.80;;;30.89;42.27;100305.50;5009219;28;20060;-54
2021/07/12 07:46:28;;;;;;;3.80;3.40;;;31.30;59.40;;;30.93;41.82;100293.09;5009337;28;20052;-55
2021/07/12 07:48:54;;;;;;;4.97;3.92;;;31.60;58.70;;;31.13;41.81;100298.31;5009551;28;20033;-51
2021/07/12 07:51:20;;;;;;;4.20;3.70;;;31.70;58.70;;;31.42;40.98;100303.63;5009286;28;20092;-47
2021/07/12 07:53:46;;;;;;;5.03;4.03;;;31.90;58.40;;;31.27;41.01;100299.22;5009248;28;20446;-49
2021/07/12 07:56:12;;;;;;;5.03;3.88;;;32.00;58.10;;;31.19;41.23;100297.16;5009080;28;20108;-53
2021/07/12 07:58:37;;;;;;;4.97;4.10;;;31.70;58.80;;;31.64;40.96;100292.34;5008989;28;20141;-53
2021/07/12 08:01:03;;;;;;;7.68;4.18;;;32.00;58.60;;;31.74;41.05;100292.22;5008949;28;20039;-53
2021/07/12 08:03:29;;;;;;;4.93;3.70;;;32.20;58.50;;;31.73;40.59;100279.84;5008988;28;20037;-56
2021/07/12 08:05:55;;;;;;;4.32;3.92;;;32.20;58.50;;;31.82;40.14;100278.13;5008955;28;20036;-52
2021/07/12 08:08:21;;;;;;;6.43;4.35;;;32.30;57.90;;;31.79;40.64;100277.91;5009139;28;20057;-53
2021/07/12 08:10:47;;;;;;;4.55;3.53;;;32.30;58.10;;;31.56;40.95;100283.00;5008916;28;20034;-52
2021/07/12 08:13:13;;;;;;;5.05;3.95;;;32.10;58.40;;;31.60;40.49;100285.94;5008737;28;20482;-54
2021/07/12 08:15:39;;;;;;;3.38;3.10;;;32.20;57.90;;;31.91;39.38;100291.75;4990696;28;20034;-53
2021/07/12 08:18:06;;;;;;;4.88;3.30;;;32.30;57.60;;;31.95;39.65;100290.88;5009010;28;20116;-53
2021/07/12 08:20:33;;;;;;;3.97;3.50;;;32.50;57.70;;;32.21;39.25;100293.19;5008694;28;20500;-49
2021/07/12 08:22:59;;;;;;;5.95;3.95;;;32.60;57.40;;;32.17;38.80;100297.56;5008541;28;20128;-52
2021/07/12 08:25:27;;;;;;;6.90;3.47;;;32.70;56.90;;;32.50;38.54;100293.06;4990704;28;20044;-49
2021/07/12 08:27:53;;;;;;;3.58;3.28;;;32.90;56.60;;;32.88;37.84;100289.19;5008408;28;20037;-54
2021/07/12 08:30:21;;;;;;;4.38;3.88;;;33.20;56.20;;;32.87;37.63;100278.69;5008705;28;20045;-52
2021/07/12 08:32:47;;;;;;;5.00;3.92;;;33.30;56.10;;;32.19;38.94;100287.28;5008895;28;20037;-55
2021/07/12 08:35:15;;;;;;;5.38;3.70;;;32.90;56.10;;;32.13;38.91;100286.59;5008598;28;20100;-51
2021/07/12 08:37:41;;;;;;;7.72;3.20;;;32.70;56.60;;;32.07;38.39;100286.94;4990724;28;20112;-50
2021/07/12 08:40:09;;;;;;;3.67;3.13;;;32.60;56.30;;;31.95;37.76;100277.41;5007442;28;20080;-53
2021/07/12 08:42:36;;;;;;;5.07;3.97;;;32.50;55.90;;;31.77;38.53;100272.00;4990453;28;20516;-53
2021/07/12 08:45:04;;;;;;;3.88;3.53;;;32.20;56.40;;;32.11;37.91;100274.50;5008123;28;20959;-54
2021/07/12 08:47:30;;;;;;;5.85;3.67;;;32.40;56.50;;;32.62;37.44;100261.81;5008334;28;20498;-53
2021/07/12 08:49:56;;;;;;;4.43;2.65;;;32.80;56.10;;;32.27;37.54;100274.00;5008468;28;20052;-50
2021/07/12 08:52:23;;;;;;;5.15;3.13;;;32.70;55.60;;;32.56;36.65;100271.13;5008493;28;20030;-55
2021/07/12 08:54:51;;;;;;;3.17;2.92;;;32.90;55.20;;;32.59;36.94;100272.41;5007963;28;20030;-48
2021/07/12 08:57:17;;;;;;;3.70;3.30;;;33.00;55.10;;;32.67;36.45;100272.53;5007738;28;20060;-58
2021/07/12 08:59:44;;;;;;;2.75;2.38;;;33.00;54.70;;;32.87;36.10;100266.00;5008096;28;20116;-61
2021/07/12 09:02:16;;;;;;;4.07;3.00;;;33.20;54.50;;;32.28;37.17;100266.72;5007993;28;20125;-60
2021/07/12 09:04:46;;;;;;;5.07;2.70;;;32.70;54.70;;;32.41;36.45;100271.34;5008245;28;20037;-59
2021/07/12 09:07:21;;;;;;;3.50;2.35;;;32.70;55.00;;;32.78;35.77;100273.19;5008146;28;20037;-60
2021/07/12 09:09:58;;;;;;;3.97;3.13;;;32.90;54.30;;;32.32;36.55;100281.19;5007802;28;20088;-60
2021/07/12 09:12:51;;;;;;;4.35;3.13;;;32.80;54.80;;;32.36;36.96;100271.44;5007790;28;20049;-61
2021/07/12 09:15:24;;;;;;;9.10;3.08;;;32.70;55.50;;;32.85;36.62;100267.41;4992761;28;20042;-60
2021/07/12 09:17:53;;;;;;;6.00;3.00;;;33.00;55.40;;;33.10;36.41;100272.31;5007807;28;20042;-60
2021/07/12 09:20:33;;;;;;;3.00;2.70;;;33.30;55.00;;;33.29;34.33;100275.75;5007546;28;20076;-59
2021/07/12 09:23:21;;;;;;;4.00;3.03;;;33.70;53.40;;;32.98;35.42;100280.13;5007968;28;20091;-61
2021/07/12 09:26:04;;;;;;;19.40;5.55;;;33.40;54.00;;;33.40;35.68;100280.97;4990437;28;20068;-62
2021/07/12 09:28:45;;;;;;;4.68;2.88;;;33.70;54.20;;;33.51;35.21;100279.66;4989512;28;20505;-62
2021/07/12 09:31:28;;;;;;;5.22;2.90;;;33.70;54.10;;;33.80;34.89;100263.94;4989713;28;20490;-62
2021/07/12 09:33:54;;;;;;;4.47;2.42;;;34.00;53.50;;;34.16;34.49;100253.09;5007603;28;20041;-62
2021/07/12 09:36:22;;;;;;;2.85;2.35;;;34.30;53.50;;;33.85;34.84;100253.00;5008094;28;20511;-61
2021/07/12 09:38:48;;;;;;;4.50;2.50;;;34.30;53.10;;;33.63;35.08;100247.50;5007694;28;20070;-61
2021/07/12 09:41:30;;;;;;;5.30;1.95;;;34.00;53.90;;;32.30;37.55;100242.94;5006629;28;20057;-63
2021/07/12 09:44:03;;;;;;;2.85;2.60;;;33.30;54.60;;;32.24;37.22;100255.72;4967185;28;20490;-61
2021/07/12 09:46:31;;;;;;;2.25;2.05;;;32.70;55.50;;;32.09;37.12;100255.94;4968461;28;20054;-53
2021/07/12 09:49:15;;;;;;;5.07;2.47;;;32.50;55.20;;;31.81;37.37;100244.19;4968166;28;20063;-54
2021/07/12 09:51:45;;;;;;;2.65;2.45;;;32.20;55.70;;;32.51;36.85;100249.63;4968359;28;20097;-53
2021/07/12 09:54:36;;;;;;;2.40;2.17;;;32.30;56.20;;;33.20;36.54;100255.94;4969040;28;20045;-54
2021/07/12 09:57:14;;;;;;;3.13;1.92;;;33.10;56.40;;;33.74;35.16;100256.22;4968947;28;20038;-51
2021/07/12 10:00:05;;;;;;;2.95;1.90;;;33.70;54.90;;;34.12;34.07;100257.50;4968119;28;20047;-52
2021/07/12 10:02:37;;;;;;;4.20;2.03;;;34.20;53.20;;;33.70;34.58;100253.31;4968413;28;20118;-50
2021/07/12 10:05:10;;;;;;;3.50;1.75;;;34.20;53.10;;;33.53;35.00;100255.88;4967875;28;20129;-51
2021/07/12 10:07:36;;;;;;;3.03;2.00;;;34.00;53.70;;;33.80;35.03;100244.22;4967052;28;20031;-49
2021/07/12 10:10:13;;;;;;;2.35;2.05;;;34.10;53.90;;;34.39;34.11;100245.03;4968348;28;20085;-53
2021/07/12 10:12:41;;;;;;;2.78;1.98;;;34.50;53.50;;;34.32;34.50;100250.06;4968041;28;20039;-50
2021/07/12 10:15:09;;;;;;;2.90;2.00;;;34.50;53.40;;;34.54;34.31;100255.44;4968371;28;20042;-50
2021/07/12 10:17:36;;;;;;;2.28;1.92;;;34.80;53.40;;;34.49;34.49;100244.78;4967653;28;20753;-52
2021/07/12 10:20:04;;;;;;;2.42;2.22;;;34.70;53.30;;;34.84;33.62;100249.28;4967778;28;20061;-53
2021/07/12 10:22:42;;;;;;;4.78;2.08;;;35.00;52.70;;;34.83;32.69;100239.56;4966813;28;20351;-51
2021/07/12 10:25:19;;;;;;;2.38;2.00;;;35.20;51.60;;;33.91;34.75;100246.41;4968721;28;20127;-51
2021/07/12 10:28:05;;;;;;;2.70;1.40;;;34.70;52.50;;;33.37;35.69;100262.66;4968632;28;20105;-53
2021/07/12 10:30:33;;;;;;;;;;;34.10;53.00;;;33.37;33.51;100262.66;4968935;28;20039;-51